Time;durP1;ratioP1;P1;durP2;ratioP2;P2;SDS_P1;SDS_P2;PMS_P1;PMS_P2;Temp;Humidity;BMP_temperature;BMP_pressure;BME280_temperature;BME280_humidity;BME280_pressure;Samples;Min_cycle;Max_cycle;Signal;HPM_P1;HPM_P2
2023/08/31 00:02:17;;;;;;;4.95;1.40;;;;;;;11.22;100.00;100919.75;5078294;28;20087;-80
2023/08/31 00:04:42;;;;;;;2.78;1.20;;;;;;;11.23;100.00;100921.47;5077886;28;20043;-79
2023/08/31 00:07:08;;;;;;;3.10;1.30;;;;;;;11.29;100.00;100917.41;5096265;28;20036;-79
2023/08/31 00:09:34;;;;;;;2.50;1.20;;;;;;;11.34;100.00;100916.97;5096066;28;20028;-80
2023/08/31 00:12:01;;;;;;;3.33;1.00;;;;;;;11.40;100.00;100919.88;5096811;28;20036;-80
2023/08/31 00:14:27;;;;;;;1.95;1.10;;;;;;;11.54;100.00;100910.63;5077775;28;20032;-79
2023/08/31 00:16:52;;;;;;;3.38;1.30;;;;;;;11.64;100.00;100910.59;5096211;28;20039;-79
2023/08/31 00:19:19;;;;;;;1.88;0.93;;;;;;;11.69;100.00;100905.69;5077878;28;20059;-79
2023/08/31 00:21:44;;;;;;;3.15;0.77;;;;;;;11.70;100.00;100896.69;5095576;28;20058;-79
2023/08/31 00:24:10;;;;;;;2.85;0.60;;;;;;;11.71;100.00;100902.88;5077719;28;20040;-80
2023/08/31 00:26:40;;;;;;;2.28;0.70;;;;;;;11.64;100.00;100899.94;5077489;28;20028;-79
2023/08/31 00:29:07;;;;;;;1.70;0.70;;;;;;;11.53;100.00;100895.63;5062212;28;20025;-78
2023/08/31 00:31:33;;;;;;;3.72;1.10;;;;;;;11.40;100.00;100897.75;5077849;28;20036;-78
2023/08/31 00:34:03;;;;;;;2.72;0.70;;;;;;;11.25;100.00;100895.50;5095714;28;20059;-79
2023/08/31 00:36:28;;;;;;;5.15;1.45;;;;;;;11.08;100.00;100899.75;5096197;28;20070;-80
2023/08/31 00:38:53;;;;;;;11.25;1.33;;;;;;;10.98;100.00;100904.22;5060907;28;20433;-78
2023/08/31 00:41:19;;;;;;;3.25;1.17;;;;;;;10.84;100.00;100908.16;5094784;28;20036;-79
2023/08/31 00:43:45;;;;;;;7.80;1.23;;;;;;;10.72;100.00;100895.97;5077430;28;20117;-79
2023/08/31 00:46:10;;;;;;;2.85;1.05;;;;;;;10.63;100.00;100902.09;5077037;28;20377;-78
2023/08/31 00:48:36;;;;;;;6.68;1.20;;;;;;;10.53;100.00;100902.09;5077459;28;20063;-83
2023/08/31 00:51:03;;;;;;;6.60;1.17;;;;;;;10.41;100.00;100899.53;5096363;28;20453;-83
2023/08/31 00:53:29;;;;;;;1.95;1.00;;;;;;;10.32;100.00;100895.00;5078225;28;20032;-83
2023/08/31 00:55:54;;;;;;;5.82;1.10;;;;;;;10.29;100.00;100894.44;5096625;28;20039;-83
2023/08/31 00:58:20;;;;;;;7.57;1.33;;;;;;;10.28;100.00;100887.44;5096048;28;20032;-83
2023/08/31 01:01:25;;;;;;;3.95;1.10;;;;;;;10.26;100.00;100892.06;5094345;28;20526;-81
2023/08/31 01:04:09;;;;;;;4.32;1.20;;;;;;;10.28;100.00;100885.63;5096640;28;20050;-83
2023/08/31 01:07:03;;;;;;;4.47;1.40;;;;;;;10.33;100.00;100894.06;5096483;28;20032;-83
2023/08/31 01:09:57;;;;;;;4.30;1.20;;;;;;;10.42;100.00;100903.06;5086752;28;20036;-83
2023/08/31 01:12:30;;;;;;;3.25;1.30;;;;;;;10.57;100.00;100935.44;5095963;28;20073;-82
2023/08/31 01:15:04;;;;;;;4.90;1.40;;;;;;;10.62;100.00;100946.50;5096123;28;20028;-78
2023/08/31 01:17:31;;;;;;;8.73;2.00;;;;;;;10.62;100.00;100933.19;5095754;28;20498;-79
2023/08/31 01:19:59;;;;;;;5.55;1.60;;;;;;;10.52;100.00;100925.16;5096022;28;20527;-78
2023/08/31 01:22:33;;;;;;;4.00;1.30;;;;;;;10.43;100.00;100920.69;5078018;28;20028;-78
2023/08/31 01:25:03;;;;;;;3.90;1.17;;;;;;;10.37;100.00;100914.06;5095396;28;20047;-77
2023/08/31 01:27:32;;;;;;;3.60;1.23;;;;;;;10.31;100.00;100908.44;5096253;28;20101;-77
2023/08/31 01:29:58;;;;;;;2.00;1.10;;;;;;;10.29;100.00;100910.41;5095504;28;20036;-77
2023/08/31 01:32:23;;;;;;;6.75;1.42;;;;;;;10.27;100.00;100905.22;5095509;28;20032;-77
2023/08/31 01:34:51;;;;;;;6.20;1.40;;;;;;;10.25;100.00;100907.16;5095201;28;20458;-77
2023/08/31 01:37:26;;;;;;;4.28;1.20;;;;;;;10.18;100.00;100898.03;5095323;28;20043;-77
2023/08/31 01:40:14;;;;;;;5.60;1.38;;;;;;;10.15;100.00;100900.97;5095358;28;20028;-77
2023/08/31 01:42:44;;;;;;;5.00;1.40;;;;;;;10.15;100.00;100904.50;5077441;28;20100;-77
2023/08/31 01:45:18;;;;;;;4.63;1.70;;;;;;;10.14;100.00;100901.97;5094959;28;20389;-77
2023/08/31 01:47:43;;;;;;;4.53;1.88;;;;;;;10.13;100.00;100902.94;5095310;28;20024;-77
2023/08/31 01:50:09;;;;;;;2.58;1.48;;;;;;;10.11;100.00;100896.91;5095298;28;20078;-77
2023/08/31 01:52:34;;;;;;;8.48;1.95;;;;;;;10.11;100.00;100895.09;5095161;28;20055;-77
2023/08/31 01:55:00;;;;;;;2.92;1.60;;;;;;;10.11;100.00;100897.75;5094996;28;20464;-77
2023/08/31 01:57:25;;;;;;;3.90;1.50;;;;;;;10.15;100.00;100901.81;5094990;28;20428;-77
2023/08/31 01:59:50;;;;;;;8.15;2.45;;;;;;;10.16;100.00;100914.13;5094655;28;20050;-77
2023/08/31 02:02:16;;;;;;;6.93;1.60;;;;;;;10.14;100.00;100915.25;5094664;28;20044;-77
2023/08/31 02:04:43;;;;;;;7.60;2.10;;;;;;;10.13;100.00;100917.06;5076770;28;20089;-77
2023/08/31 02:07:08;;;;;;;5.43;1.52;;;;;;;10.09;100.00;100907.69;5094731;28;20093;-77
2023/08/31 02:09:34;;;;;;;7.28;2.05;;;;;;;10.10;100.00;100912.00;5093755;28;20040;-77
2023/08/31 02:11:59;;;;;;;6.90;1.70;;;;;;;10.11;100.00;100915.53;5094771;28;20032;-77
2023/08/31 02:14:24;;;;;;;4.93;1.40;;;;;;;10.11;100.00;100920.84;5094412;28;20040;-77
2023/08/31 02:16:50;;;;;;;5.18;2.10;;;;;;;10.09;100.00;100915.66;5095065;28;20028;-77
2023/08/31 02:19:15;;;;;;;6.07;1.67;;;;;;;10.05;100.00;100917.72;5076350;28;20028;-77
2023/08/31 02:21:40;;;;;;;8.63;2.03;;;;;;;10.01;100.00;100913.66;5094505;28;20113;-77
2023/08/31 02:24:06;;;;;;;2.90;1.83;;;;;;;10.00;100.00;100909.31;5094409;28;20031;-77
2023/08/31 02:26:33;;;;;;;5.65;2.30;;;;;;;9.99;100.00;100912.13;5094629;28;20032;-77
2023/08/31 02:28:58;;;;;;;6.00;2.53;;;;;;;9.95;100.00;100913.34;5094865;28;20039;-77
2023/08/31 02:31:24;;;;;;;5.35;2.33;;;;;;;9.91;100.00;100910.09;5077035;28;20119;-77
2023/08/31 02:33:49;;;;;;;5.05;2.08;;;;;;;9.87;100.00;100909.53;5094036;28;20042;-76
2023/08/31 02:36:15;;;;;;;5.55;2.53;;;;;;;9.87;100.00;100914.84;5094024;28;20031;-77
2023/08/31 02:38:40;;;;;;;5.70;2.55;;;;;;;9.88;100.00;100910.38;5094217;28;20031;-77
2023/08/31 02:41:05;;;;;;;6.15;2.20;;;;;;;9.86;100.00;100913.16;5094596;28;20086;-77
2023/08/31 02:43:31;;;;;;;9.02;2.92;;;;;;;9.86;100.00;100912.31;5094170;28;20420;-77
2023/08/31 02:46:01;;;;;;;6.32;2.60;;;;;;;9.80;100.00;100908.38;5094084;28;20036;-77
2023/08/31 02:48:27;;;;;;;7.47;2.92;;;;;;;9.86;100.00;100915.81;5094609;28;20090;-77
2023/08/31 02:50:53;;;;;;;5.38;2.58;;;;;;;9.89;100.00;100907.56;5094056;28;20024;-77
2023/08/31 02:53:19;;;;;;;10.70;2.15;;;;;;;9.94;100.00;100904.53;5075941;28;20035;-77
2023/08/31 02:55:44;;;;;;;9.02;2.35;;;;;;;10.02;100.00;100911.84;5075641;28;20039;-77
2023/08/31 02:58:09;;;;;;;15.00;2.63;;;;;;;10.07;100.00;100912.28;5094052;28;20178;-77
2023/08/31 03:00:35;;;;;;;8.75;2.60;;;;;;;10.07;100.00;100909.63;5094215;28;20051;-78
2023/08/31 03:03:00;;;;;;;5.15;2.15;;;;;;;10.06;100.00;100908.78;5093367;28;20052;-76
2023/08/31 03:05:25;;;;;;;8.18;2.80;;;;;;;10.07;100.00;100905.13;5094101;28;20093;-77
2023/08/31 03:07:51;;;;;;;10.95;2.30;;;;;;;10.10;100.00;100909.34;5093718;28;20047;-79
2023/08/31 03:10:16;;;;;;;8.40;1.67;;;;;;;10.17;100.00;100914.97;5093371;28;20032;-79
2023/08/31 03:12:42;;;;;;;10.40;2.20;;;;;;;10.23;100.00;100914.44;5093734;28;20039;-77
2023/08/31 03:15:07;;;;;;;8.40;2.28;;;;;;;10.29;100.00;100903.25;5093547;28;20078;-77
2023/08/31 03:17:33;;;;;;;5.28;2.03;;;;;;;10.36;100.00;100899.13;5093632;28;20513;-79
2023/08/31 03:19:58;;;;;;;8.80;2.33;;;;;;;10.45;100.00;100908.09;5093568;28;20035;-81
2023/08/31 03:22:23;;;;;;;8.07;1.85;;;;;;;10.48;100.00;100906.97;5092574;28;20107;-80
2023/08/31 03:24:49;;;;;;;11.27;1.90;;;;;;;10.52;100.00;100905.72;5094029;28;20456;-79
2023/08/31 03:27:15;;;;;;;5.38;1.73;;;;;;;10.57;100.00;100909.66;5075425;28;20038;-79
2023/08/31 03:29:41;;;;;;;9.38;1.60;;;;;;;10.61;100.00;100910.22;5093484;28;20077;-80
2023/08/31 03:32:06;;;;;;;8.02;1.40;;;;;;;10.60;100.00;100911.22;5075266;28;20036;-81
2023/08/31 03:34:32;;;;;;;7.20;1.90;;;;;;;10.62;100.00;100916.41;5093369;28;20051;-80
2023/08/31 03:36:58;;;;;;;4.55;1.65;;;;;;;10.63;100.00;100913.59;5093255;28;20028;-80
2023/08/31 03:39:24;;;;;;;2.72;1.33;;;;;;;10.65;100.00;100908.13;5093417;28;20115;-80
2023/08/31 03:41:50;;;;;;;12.50;1.77;;;;;;;10.68;100.00;100924.66;5093339;28;20038;-80
2023/08/31 03:44:15;;;;;;;8.73;1.92;;;;;;;10.71;100.00;100915.56;5075125;28;20032;-80
2023/08/31 03:46:41;;;;;;;3.63;1.50;;;;;;;10.78;100.00;100916.69;5093058;28;20032;-80
2023/08/31 03:49:06;;;;;;;10.93;1.98;;;;;;;10.89;100.00;100924.53;5093317;28;20028;-80
2023/08/31 03:51:31;;;;;;;6.72;1.58;;;;;;;10.96;100.00;100913.31;5093210;28;20165;-79
2023/08/31 03:53:57;;;;;;;3.08;1.33;;;;;;;11.03;100.00;100923.31;5093412;28;20352;-80
2023/08/31 03:56:22;;;;;;;9.90;1.60;;;;;;;11.14;100.00;100916.13;5093208;28;20032;-79
2023/08/31 03:58:48;;;;;;;8.98;1.70;;;;;;;11.18;100.00;100915.72;5093522;28;20032;-82
2023/08/31 04:01:14;;;;;;;14.43;1.52;;;;;;;11.22;100.00;100918.94;5093424;28;20036;-82
2023/08/31 04:03:40;;;;;;;9.68;1.80;;;;;;;11.32;100.00;100925.09;5093849;28;20444;-78
2023/08/31 04:06:05;;;;;;;7.28;1.90;;;;;;;11.46;100.00;100923.81;5093517;28;20043;-79
2023/08/31 04:08:30;;;;;;;2.53;1.08;;;;;;;11.54;100.00;100926.63;5093045;28;20383;-83
2023/08/31 04:10:56;;;;;;;8.98;1.70;;;;;;;11.64;100.00;100922.09;5093155;28;20082;-82
2023/08/31 04:13:21;;;;;;;5.57;1.33;;;;;;;11.70;100.00;100923.34;5093027;28;20059;-81
2023/08/31 04:15:47;;;;;;;8.68;1.33;;;;;;;11.73;100.00;100924.88;5074988;28;20414;-83
2023/08/31 04:18:12;;;;;;;10.07;1.38;;;;;;;11.72;100.00;100929.38;5093021;28;20028;-82
2023/08/31 04:20:38;;;;;;;3.63;1.00;;;;;;;11.73;100.00;100936.38;5075546;28;20035;-83
2023/08/31 04:23:03;;;;;;;7.85;1.67;;;;;;;11.74;100.00;100926.56;5093065;28;20047;-83
2023/08/31 04:25:31;;;;;;;6.72;1.85;;;;;;;11.77;100.00;100929.78;5092907;28;20039;-83
2023/08/31 04:27:56;;;;;;;6.97;1.40;;;;;;;11.77;100.00;100929.78;5093379;28;20040;-83
2023/08/31 04:30:22;;;;;;;7.55;1.65;;;;;;;11.77;100.00;100943.09;5092911;28;20038;-83
2023/08/31 04:32:48;;;;;;;6.53;1.60;;;;;;;11.76;100.00;100943.25;5092496;28;20119;-83
2023/08/31 04:35:13;;;;;;;6.78;1.27;;;;;;;11.75;100.00;100945.09;5095817;28;20032;-82
2023/08/31 04:37:39;;;;;;;8.52;1.70;;;;;;;11.73;100.00;100949.69;5096919;28;20032;-82
2023/08/31 04:40:05;;;;;;;10.32;1.60;;;;;;;11.75;100.00;100944.25;5096596;28;20115;-83
2023/08/31 04:42:30;;;;;;;5.40;1.52;;;;;;;11.76;100.00;100951.25;5096662;28;20042;-82
2023/08/31 04:44:55;;;;;;;3.08;1.40;;;;;;;11.78;100.00;100947.47;5096881;28;20361;-82
2023/08/31 04:47:22;;;;;;;8.27;2.45;;;;;;;11.86;100.00;100949.41;5096279;28;20068;-83
2023/08/31 04:49:48;;;;;;;8.18;1.35;;;;;;;11.91;100.00;100951.63;5096365;28;20508;-82
2023/08/31 04:52:13;;;;;;;3.65;1.30;;;;;;;12.01;100.00;100956.97;5096097;28;20042;-82
2023/08/31 04:54:38;;;;;;;5.15;1.58;;;;;;;12.02;100.00;100956.81;5061048;28;20036;-82
2023/08/31 04:57:07;;;;;;;8.23;1.65;;;;;;;12.03;100.00;100952.31;5078581;28;20032;-83
2023/08/31 04:59:32;;;;;;;6.32;1.55;;;;;;;12.05;100.00;100963.69;5079040;28;20124;-83
2023/08/31 05:01:57;;;;;;;7.93;2.03;;;;;;;12.03;100.00;100963.81;5096092;28;20071;-83
2023/08/31 05:04:23;;;;;;;10.75;1.77;;;;;;;12.05;100.00;100961.88;5096308;28;20032;-84
2023/08/31 05:06:48;;;;;;;3.55;1.30;;;;;;;12.12;100.00;100962.97;5096240;28;20052;-84
2023/08/31 05:09:14;;;;;;;4.35;1.40;;;;;;;12.23;100.00;100958.44;5095965;28;20038;-84
2023/08/31 05:11:39;;;;;;;11.13;1.45;;;;;;;12.28;100.00;100970.31;5095721;28;20106;-84
2023/08/31 05:14:04;;;;;;;5.75;1.42;;;;;;;12.34;100.00;100974.25;5095801;28;20424;-83
2023/08/31 05:16:30;;;;;;;4.63;1.23;;;;;;;12.38;100.00;100977.47;5095560;28;20090;-84
2023/08/31 05:18:55;;;;;;;6.10;1.42;;;;;;;12.37;100.00;100979.28;5095805;28;20081;-83
2023/08/31 05:21:20;;;;;;;6.78;1.20;;;;;;;12.35;100.00;100982.09;5095620;28;20040;-84
2023/08/31 05:23:46;;;;;;;7.25;1.65;;;;;;;12.38;100.00;100983.63;5077525;28;20096;-84
2023/08/31 05:26:11;;;;;;;4.57;1.13;;;;;;;12.37;100.00;100983.78;5095559;28;20125;-84
2023/08/31 05:28:38;;;;;;;4.47;1.17;;;;;;;12.37;100.00;100992.63;5095523;28;20395;-83
2023/08/31 05:31:03;;;;;;;6.60;1.27;;;;;;;12.43;100.00;100985.84;5095770;28;20020;-86
2023/08/31 05:33:33;;;;;;;8.90;1.35;;;;;;;12.52;100.00;100985.81;5077611;28;20034;-86
2023/08/31 05:36:00;;;;;;;8.45;1.42;;;;;;;12.55;100.00;100982.00;5095347;28;20472;-85
2023/08/31 05:38:25;;;;;;;7.93;1.42;;;;;;;12.54;100.00;100991.00;5095353;28;20080;-86
2023/08/31 05:40:51;;;;;;;9.70;1.52;;;;;;;12.50;100.00;100987.78;5095306;28;20032;-87
2023/08/31 05:43:16;;;;;;;2.88;1.23;;;;;;;12.53;100.00;100994.66;5095568;28;20414;-84
2023/08/31 05:45:42;;;;;;;5.90;1.13;;;;;;;12.57;100.00;100992.53;5076242;28;20453;-85
2023/08/31 05:48:08;;;;;;;17.67;1.65;;;;;;;12.59;100.00;100998.56;5096337;28;20111;-83
2023/08/31 05:50:33;;;;;;;6.72;1.45;;;;;;;12.64;100.00;100998.97;5095024;28;20059;-85
2023/08/31 05:52:59;;;;;;;9.73;1.85;;;;;;;12.71;100.00;101000.03;5095123;28;20032;-85
2023/08/31 05:55:24;;;;;;;12.35;1.42;;;;;;;12.80;100.00;101000.97;5094927;28;20098;-84
2023/08/31 05:57:50;;;;;;;4.57;1.40;;;;;;;12.82;100.00;101009.66;5095341;28;20036;-85
2023/08/31 06:00:17;;;;;;;7.28;1.63;;;;;;;12.79;100.00;101008.13;5094924;28;20036;-86
2023/08/31 06:02:46;;;;;;;5.75;1.20;;;;;;;12.76;100.00;101004.94;5094801;28;20052;-85
2023/08/31 06:05:16;;;;;;;9.98;1.75;;;;;;;12.74;100.00;101007.75;5094859;28;20039;-86
2023/08/31 06:07:42;;;;;;;6.70;1.30;;;;;;;12.76;100.00;101018.28;5095934;28;20048;-86
2023/08/31 06:10:07;;;;;;;5.30;1.15;;;;;;;12.86;100.00;101019.06;5095318;28;20069;-85
2023/08/31 06:12:33;;;;;;;5.75;1.40;;;;;;;12.93;100.00;101021.97;5077313;28;20032;-84
2023/08/31 06:14:58;;;;;;;5.05;1.40;;;;;;;12.96;100.00;101027.03;5076424;28;20059;-84
2023/08/31 06:17:23;;;;;;;7.85;1.55;;;;;;;12.94;100.00;101027.16;5094913;28;20122;-85
2023/08/31 06:19:49;;;;;;;5.32;1.33;;;;;;;12.93;100.00;101027.31;5095063;28;20441;-84
2023/08/31 06:22:14;;;;;;;4.40;1.13;;;;;;;12.86;100.00;101033.25;5094688;28;20097;-85
2023/08/31 06:24:39;;;;;;;4.80;1.30;;;;;;;12.77;100.00;101033.31;5094331;28;20028;-86
2023/08/31 06:27:05;;;;;;;3.40;1.30;;;;;;;12.73;100.00;101035.44;5094425;28;20040;-84
2023/08/31 06:29:30;;;;;;;2.33;1.00;;;;;;;12.73;100.00;101029.25;5076000;28;20036;-86
2023/08/31 06:31:55;;;;;;;7.07;2.20;;;;;;;12.76;100.00;101032.47;5094105;28;20036;-86
2023/08/31 06:34:21;;;;;;;3.05;1.00;;;;;;;12.80;100.00;101033.84;5094219;28;20024;-85
2023/08/31 06:36:46;;;;;;;5.20;1.30;;;;;;;12.82;100.00;101039.03;5093924;28;20476;-84
2023/08/31 06:39:12;;;;;;;2.05;0.82;;;;;;;12.79;100.00;101031.34;5076639;28;20475;-85
2023/08/31 06:41:37;;;;;;;1.15;0.90;;;;;;;12.77;100.00;101036.81;5094121;28;20032;-84
2023/08/31 06:44:04;;;;;;;3.45;1.40;;;;;;;12.78;100.00;101040.31;5094070;28;20059;-86
2023/08/31 06:46:29;;;;;;;2.85;1.05;;;;;;;12.79;100.00;101034.00;5094100;28;20036;-85
2023/08/31 06:48:55;;;;;;;4.45;1.13;;;;;;;12.87;100.00;101036.78;5093876;28;20430;-86
2023/08/31 06:51:20;;;;;;;3.42;1.10;;;;;;;12.91;100.00;101040.81;5093987;28;20036;-85
2023/08/31 06:53:46;;;;;;;5.00;1.33;;;;;;;12.98;100.00;101049.09;5094046;28;20067;-85
2023/08/31 06:56:11;;;;;;;1.63;1.10;;;;;;;13.14;100.00;101038.56;5093848;28;20039;-86
2023/08/31 06:58:37;;;;;;;5.78;1.27;;;;;;;13.28;100.00;101044.41;5093627;28;20539;-85
2023/08/31 07:01:05;;;;;;;2.80;1.10;;;;;;;13.44;100.00;101052.59;5075302;28;20036;-86
2023/08/31 07:03:31;;;;;;;4.85;1.10;;;;;;;13.60;100.00;101053.72;5093399;28;20052;-87
2023/08/31 07:05:56;;;;;;;4.93;1.20;;;;;;;13.68;100.00;101049.31;5093545;28;20051;-85
2023/08/31 07:08:22;;;;;;;3.05;1.10;;;;;;;13.75;100.00;101052.22;5093727;28;20050;-82
2023/08/31 07:10:50;;;;;;;4.05;0.88;;;;;;;13.83;100.00;101051.44;5093339;28;20028;-83
2023/08/31 07:13:15;;;;;;;5.13;2.28;;;;;;;13.91;100.00;101048.81;5093597;28;20024;-85
2023/08/31 07:15:41;;;;;;;3.80;1.20;;;;;;;13.93;100.00;101049.50;5093486;28;20035;-84
2023/08/31 07:18:07;;;;;;;8.65;1.45;;;;;;;13.97;100.00;101048.19;5093474;28;20093;-86
2023/08/31 07:20:33;;;;;;;4.93;0.93;;;;;;;14.07;100.00;101061.47;5093938;28;20035;-84
2023/08/31 07:22:59;;;;;;;2.35;0.98;;;;;;;14.19;100.00;101064.72;5093434;28;20025;-84
2023/08/31 07:25:24;;;;;;;8.13;1.30;;;;;;;14.27;100.00;101060.28;5093378;28;20071;-84
2023/08/31 07:27:50;;;;;;;5.93;1.45;;;;;;;14.31;100.00;101059.94;5093777;28;20064;-81
2023/08/31 07:30:15;;;;;;;3.28;1.33;;;;;;;14.37;100.00;101064.66;5093138;28;20051;-85
2023/08/31 07:32:41;;;;;;;2.70;0.85;;;;;;;14.40;100.00;101067.84;5093781;28;20047;-84
2023/08/31 07:35:07;;;;;;;3.30;1.13;;;;;;;14.47;100.00;101068.06;5093491;28;20036;-85
2023/08/31 07:37:32;;;;;;;6.50;1.30;;;;;;;14.53;100.00;101066.59;5093265;28;20024;-84
2023/08/31 07:39:58;;;;;;;15.20;3.13;;;;;;;14.59;100.00;101068.63;5093210;28;20464;-84
2023/08/31 07:42:23;;;;;;;4.72;1.10;;;;;;;14.71;100.00;101071.91;5093241;28;20201;-85
2023/08/31 07:44:48;;;;;;;2.78;1.20;;;;;;;14.80;100.00;101073.63;5093560;28;20026;-83
2023/08/31 07:47:14;;;;;;;6.07;1.23;;;;;;;14.87;100.00;101076.47;5093409;28;20417;-83
2023/08/31 07:49:39;;;;;;;9.82;1.63;;;;;;;14.94;100.00;101085.56;5093342;28;20116;-80
2023/08/31 07:52:05;;;;;;;3.65;1.20;;;;;;;15.02;100.00;101082.06;5093651;28;20067;-82
2023/08/31 07:54:30;;;;;;;5.20;1.33;;;;;;;15.07;100.00;101088.59;5093098;28;20450;-82
2023/08/31 07:56:55;;;;;;;3.92;1.30;;;;;;;15.14;100.00;101086.97;5093249;28;20472;-83
2023/08/31 07:59:21;;;;;;;6.20;1.30;;;;;;;15.26;100.00;101090.19;5093135;28;20039;-84
2023/08/31 08:01:47;;;;;;;6.10;1.80;;;;;;;15.31;100.00;101082.47;5093299;28;20055;-84
2023/08/31 08:04:13;;;;;;;2.92;1.30;;;;;;;15.50;100.00;101086.69;5093465;28;20075;-81
2023/08/31 08:06:38;;;;;;;4.03;1.55;;;;;;;15.84;100.00;101090.31;5093563;28;20126;-85
2023/08/31 08:09:04;;;;;;;4.38;2.45;;;;;;;16.33;100.00;101098.31;5075896;28;20036;-82
2023/08/31 08:11:30;;;;;;;2.70;1.02;;;;;;;16.78;100.00;101104.06;5097247;28;20048;-84
2023/08/31 08:13:55;;;;;;;3.50;1.10;;;;;;;17.07;100.00;101100.75;5097060;28;20424;-84
2023/08/31 08:16:21;;;;;;;5.60;1.15;;;;;;;17.25;100.00;101102.34;5097040;28;20036;-85
2023/08/31 08:18:46;;;;;;;6.30;1.20;;;;;;;17.27;100.00;101105.69;5096979;28;20089;-82
2023/08/31 08:21:11;;;;;;;4.93;1.30;;;;;;;17.36;100.00;101106.50;5096679;28;20044;-83
2023/08/31 08:23:37;;;;;;;4.97;1.25;;;;;;;17.28;100.00;101110.91;5096853;28;20028;-83
2023/08/31 08:26:02;;;;;;;4.60;1.35;;;;;;;17.27;100.00;101117.31;5097525;28;20454;-84
2023/08/31 08:28:28;;;;;;;11.63;2.20;;;;;;;17.20;100.00;101120.88;5096823;28;20024;-83
2023/08/31 08:30:54;;;;;;;7.13;2.28;;;;;;;17.19;100.00;101120.03;5096725;28;20111;-83
2023/08/31 08:33:19;;;;;;;5.43;1.13;;;;;;;17.32;100.00;101124.03;5097059;28;20028;-83
2023/08/31 08:35:45;;;;;;;4.97;1.63;;;;;;;17.44;100.00;101128.81;5096388;28;20380;-81
2023/08/31 08:38:11;;;;;;;5.30;1.17;;;;;;;17.53;100.00;101124.22;5097146;28;20028;-80
2023/08/31 08:40:36;;;;;;;5.40;1.27;;;;;;;17.66;100.00;101137.09;5097222;28;20056;-84
2023/08/31 08:43:06;;;;;;;4.78;1.20;;;;;;;17.82;100.00;101130.72;5096764;28;20051;-83
2023/08/31 08:45:41;;;;;;;2.83;0.90;;;;;;;17.71;100.00;101134.69;5097575;28;20032;-82
2023/08/31 08:48:07;;;;;;;7.10;1.30;;;;;;;17.83;100.00;101127.03;5096784;28;20092;-82
2023/08/31 08:50:34;;;;;;;3.17;1.20;;;;;;;18.09;100.00;101139.31;5097089;28;20028;-83
2023/08/31 08:53:01;;;;;;;5.38;1.20;;;;;;;18.46;100.00;101143.84;5078013;28;20051;-84
2023/08/31 08:55:27;;;;;;;5.65;1.52;;;;;;;18.83;100.00;101139.41;5096363;28;20028;-84
2023/08/31 08:57:52;;;;;;;5.60;1.20;;;;;;;19.52;100.00;101131.97;5095782;28;20088;-82
2023/08/31 09:00:24;;;;;;;3.20;1.05;;;;;;;19.98;100.00;101147.81;5096179;28;20032;-83
2023/08/31 09:02:50;;;;;;;3.05;1.27;;;;;;;20.47;99.28;101145.28;5096448;28;20066;-82
2023/08/31 09:05:15;;;;;;;2.22;1.10;;;;;;;20.88;79.70;101153.47;5096222;28;20036;-83
2023/08/31 09:08:03;;;;;;;2.30;1.20;;;;;;;21.22;82.84;101149.06;5095913;28;20040;-84
2023/08/31 09:10:44;;;;;;;5.93;1.45;;;;;;;21.39;76.36;101146.88;5096106;28;20032;-82
2023/08/31 09:13:13;;;;;;;;;;;;;;;21.23;72.25;101144.47;5096452;28;20168;-82
2023/08/31 09:15:46;;;;;;;3.28;0.88;;;;;;;21.63;74.44;101150.06;5095831;28;19912;-82
2023/08/31 09:18:16;;;;;;;5.72;1.08;;;;;;;22.06;65.37;101157.00;5095493;28;20484;-82
2023/08/31 09:20:47;;;;;;;3.90;1.13;;;;;;;22.54;64.72;101154.94;5094635;28;20043;-83
2023/08/31 09:23:13;;;;;;;3.28;1.20;;;;;;;22.80;59.57;101158.63;5095686;28;20027;-82
2023/08/31 09:25:46;;;;;;;7.55;1.40;;;;;;;23.03;61.45;101141.84;5095610;28;20035;-82
2023/08/31 09:28:12;;;;;;;3.67;1.08;;;;;;;23.13;59.59;101152.28;5062021;28;20029;-81
2023/08/31 09:30:40;;;;;;;5.18;1.00;;;;;;;23.23;56.23;101151.84;5095972;28;20026;-82
2023/08/31 09:33:07;;;;;;;5.10;1.40;;;;;;;23.53;58.31;101149.38;5095485;28;20028;-81
2023/08/31 09:35:38;;;;;;;2.05;1.05;;;;;;;23.91;53.43;101148.53;5077597;28;20028;-81
2023/08/31 09:38:03;;;;;;;;;;;;;;;23.57;52.44;101152.47;5096046;28;20075;-82
2023/08/31 09:40:28;;;;;;;3.45;1.00;;;;;;;23.45;53.96;101154.22;5095331;28;19920;-82
2023/08/31 09:42:54;;;;;;;2.70;1.10;;;;;;;22.92;58.75;101150.66;5096240;28;20161;-83
2023/08/31 09:45:28;;;;;;;8.30;1.00;;;;;;;22.97;64.51;101150.03;5095035;28;20028;-82
2023/08/31 09:47:54;;;;;;;3.85;1.23;;;;;;;22.63;56.34;101160.13;5077886;28;20028;-82
2023/08/31 09:50:20;;;;;;;5.07;1.15;;;;;;;21.57;60.12;101162.56;5095172;28;20039;-83
2023/08/31 09:52:48;;;;;;;6.28;1.17;;;;;;;21.24;62.80;101151.56;5094921;28;20444;-82
2023/08/31 09:55:14;;;;;;;2.88;1.20;;;;;;;20.73;61.57;101171.72;5095042;28;20032;-83
2023/08/31 09:57:40;;;;;;;4.40;1.02;;;;;;;20.93;57.48;101161.03;5094650;28;20464;-82
2023/08/31 10:00:06;;;;;;;2.28;0.90;;;;;;;21.82;56.50;101160.09;5077308;28;20040;-82
2023/08/31 10:02:32;;;;;;;6.10;1.17;;;;;;;22.16;56.96;101160.97;5095247;28;20036;-83
2023/08/31 10:04:59;;;;;;;3.33;1.00;;;;;;;22.42;55.91;101166.63;5095030;28;20445;-81
2023/08/31 10:07:25;;;;;;;1.67;0.90;;;;;;;22.89;57.41;101172.81;5076889;28;20047;-80
2023/08/31 10:09:51;;;;;;;2.67;1.08;;;;;;;22.75;52.08;101174.72;5094817;28;20040;-81
2023/08/31 10:12:18;;;;;;;4.07;1.17;;;;;;;22.78;52.25;101187.00;5094490;28;20481;-82
2023/08/31 10:14:46;;;;;;;1.90;0.80;;;;;;;22.55;52.70;101180.16;5094462;28;20114;-83
2023/08/31 10:17:12;;;;;;;2.17;1.20;;;;;;;22.42;56.51;101178.28;5094576;28;20040;-81
2023/08/31 10:19:38;;;;;;;4.03;0.90;;;;;;;22.88;58.28;101168.41;5094723;28;20024;-82
2023/08/31 10:22:06;;;;;;;3.70;1.00;;;;;;;23.24;56.17;101159.78;5094726;28;20051;-81
2023/08/31 10:25:00;;;;;;;2.58;1.08;;;;;;;23.75;51.10;101171.63;5094201;28;20177;-82
2023/08/31 10:27:27;;;;;;;4.53;0.90;;;;;;;23.46;53.93;101175.72;5094630;28;20063;-81
2023/08/31 10:29:52;;;;;;;3.67;1.00;;;;;;;23.02;54.49;101180.91;5094719;28;20032;-82
2023/08/31 10:32:18;;;;;;;3.97;1.10;;;;;;;22.79;54.71;101167.81;5093834;28;20138;-81
2023/08/31 10:35:03;;;;;;;7.55;1.30;;;;;;;22.66;56.57;101170.53;5094465;28;20035;-83
2023/08/31 10:37:29;;;;;;;5.90;1.30;;;;;;;22.64;54.76;101173.47;5094336;28;20042;-81
2023/08/31 10:40:15;;;;;;;2.95;1.17;;;;;;;22.98;52.48;101171.50;5094311;28;20036;-82
2023/08/31 10:42:47;;;;;;;1.90;0.90;;;;;;;22.61;50.02;101175.78;5094238;28;20111;-81
2023/08/31 10:45:20;;;;;;;1.52;0.80;;;;;;;22.63;51.79;101176.38;5094160;28;20032;-80
2023/08/31 10:47:46;;;;;;;2.90;1.00;;;;;;;22.70;53.65;101179.94;5094910;28;20529;-80
2023/08/31 10:50:22;;;;;;;3.55;1.00;;;;;;;22.18;52.95;101179.72;5093742;28;20047;-82
2023/08/31 10:52:49;;;;;;;2.95;0.80;;;;;;;21.63;57.67;101183.41;5093978;28;20036;-82
2023/08/31 10:55:14;;;;;;;2.55;1.00;;;;;;;21.47;54.83;101179.16;5093971;28;20052;-80
2023/08/31 10:57:41;;;;;;;4.95;1.10;;;;;;;20.72;54.76;101178.13;5093998;28;20036;-81
2023/08/31 11:00:07;;;;;;;2.33;1.00;;;;;;;20.45;56.60;101177.91;5094467;28;20031;-82
2023/08/31 11:02:47;;;;;;;2.00;1.05;;;;;;;20.92;60.07;101184.50;5076291;28;20028;-81
2023/08/31 11:05:17;;;;;;;2.25;0.90;;;;;;;21.61;62.70;101181.94;5093549;28;20052;-82
2023/08/31 11:07:43;;;;;;;4.50;1.10;;;;;;;21.08;59.60;101177.13;5094064;28;20474;-82
2023/08/31 11:10:29;;;;;;;3.65;0.90;;;;;;;21.30;55.31;101167.84;5093731;28;20031;-80
2023/08/31 11:12:57;;;;;;;2.50;1.17;;;;;;;21.72;58.16;101178.63;5077122;28;20024;-81
2023/08/31 11:15:25;;;;;;;5.07;1.00;;;;;;;21.76;59.13;101179.88;5093521;28;20023;-82
2023/08/31 11:17:52;;;;;;;2.50;1.00;;;;;;;21.81;57.55;101181.97;5094260;28;20116;-84
2023/08/31 11:20:22;;;;;;;1.83;0.98;;;;;;;21.99;58.61;101178.69;5093634;28;20032;-81